Aviation Digital Data Service (ADDS)

Output produced by TAFs form (2224 UTC 17 October 2017)
found at http://aviationweather.gov/adds/tafs/
 
KTCC 171720Z 1718/1818 26010KT P6SM SKC 
     FM172200 22009KT P6SM FEW250 
     FM180200 25008KT P6SM SKC 
     FM181700 28008KT P6SM FEW250